Reddell, Louisiana
Current Conditions -  °F | °C
As of 12:55 AM on Friday 19 Dec 2014 (Local Time) from KACP Reporting Station
Haze Haze  
Wind Chill: 52°   Ceiling: 300
Heat Index: 52°   Visibility: 4mi
Dew Point: 51°   Wind: 3mph
Humidity: 95%   Direction: 60°ENE
Pressure: 30.06"   Gusts: NA
Location:  30.67°N, 92.43°W
Report Text: KACP 190655Z AUTO 06003KT 4SM BR OVC003 11/11 A3006 RMK AO2 T01130105
Loading
Personal Weather Stations






























Interactive Weather Map New forecast layout! Learn more

10-Day Weather Forecast

Advertisements
Track Severe Weather on mobile